createdAt,value
2018-12-27T00:00:40.334Z,75.40
2018-12-27T00:03:08.781Z,74.90
2018-12-27T00:05:37.215Z,74.20
2018-12-27T00:08:05.804Z,73.70
2018-12-27T00:10:34.222Z,73.60
2018-12-27T00:13:02.669Z,75.20
2018-12-27T00:15:31.069Z,74.40
2018-12-27T00:17:59.535Z,74.60
2018-12-27T00:20:27.929Z,74.90
2018-12-27T00:22:56.386Z,75.10
2018-12-27T00:25:24.795Z,74.90
2018-12-27T00:27:53.245Z,74.60
2018-12-27T00:30:21.829Z,74.10
2018-12-27T00:32:50.745Z,73.30
2018-12-27T00:35:19.415Z,74.10
2018-12-27T00:37:47.996Z,74.30
2018-12-27T00:40:16.931Z,74.20
2018-12-27T00:42:45.797Z,75.50
2018-12-27T00:45:14.354Z,75.10
2018-12-27T00:47:42.938Z,75.50
2018-12-27T00:50:11.496Z,76.10
2018-12-27T00:52:40.353Z,76.30
2018-12-27T00:55:08.918Z,77.00
2018-12-27T00:57:37.561Z,76.60
2018-12-27T01:00:07.514Z,76.90
2018-12-27T01:02:36.789Z,75.40
2018-12-27T01:05:05.362Z,74.80
2018-12-27T01:07:33.942Z,74.80
2018-12-27T01:10:02.524Z,74.00
2018-12-27T01:12:31.391Z,74.40
2018-12-27T01:14:59.953Z,73.40
2018-12-27T01:17:28.536Z,74.00
2018-12-27T01:19:57.487Z,74.70
2018-12-27T01:22:26.057Z,75.10
2018-12-27T01:24:54.665Z,76.10
2018-12-27T01:27:23.662Z,75.90
2018-12-27T01:29:52.212Z,75.70
2018-12-27T01:32:20.840Z,74.80
2018-12-27T01:34:49.441Z,75.40
2018-12-27T01:37:18.009Z,74.70
2018-12-27T01:39:46.579Z,75.40
2018-12-27T01:42:15.144Z,74.80
2018-12-27T01:44:44.024Z,74.10
2018-12-27T01:47:12.580Z,74.80
2018-12-27T01:49:41.390Z,74.50
2018-12-27T01:52:09.985Z,74.40
2018-12-27T01:54:38.587Z,73.80
2018-12-27T01:57:07.151Z,73.70
2018-12-27T01:59:35.737Z,73.40
2018-12-27T02:02:04.317Z,74.40
2018-12-27T02:04:32.872Z,74.80
2018-12-27T02:07:01.444Z,74.50
2018-12-27T02:09:30.021Z,75.40
2018-12-27T02:11:58.691Z,75.00
2018-12-27T02:14:27.430Z,72.90
2018-12-27T02:16:55.979Z,73.00
2018-12-27T02:19:24.935Z,72.70
2018-12-27T02:21:53.603Z,71.50
2018-12-27T02:24:22.210Z,70.20
2018-12-27T02:26:50.787Z,69.80
2018-12-27T02:29:19.407Z,69.40
2018-12-27T02:31:48.032Z,69.60
2018-12-27T02:34:16.685Z,70.70
2018-12-27T02:36:45.345Z,70.50
2018-12-27T02:39:13.914Z,70.10
2018-12-27T02:41:42.482Z,68.50
2018-12-27T02:44:11.108Z,68.00
2018-12-27T02:46:39.709Z,68.20
2018-12-27T02:49:08.385Z,68.80
2018-12-27T02:51:37.077Z,68.60
2018-12-27T02:54:05.699Z,69.00
2018-12-27T02:56:34.601Z,69.00
2018-12-27T02:59:03.505Z,69.70
2018-12-27T03:01:32.093Z,70.30
2018-12-27T03:04:00.900Z,70.40
2018-12-27T03:06:29.577Z,69.60
2018-12-27T03:08:58.181Z,69.00
2018-12-27T03:11:26.802Z,69.00
2018-12-27T03:13:55.411Z,69.10
2018-12-27T03:16:24.077Z,69.60
2018-12-27T03:18:52.689Z,69.30
2018-12-27T03:21:21.295Z,69.80
2018-12-27T03:23:49.942Z,70.00
2018-12-27T03:26:18.570Z,69.80
2018-12-27T03:28:47.229Z,69.60
2018-12-27T03:31:15.802Z,69.50
2018-12-27T03:33:52.495Z,69.80
2018-12-27T03:36:14.757Z,70.30
2018-12-27T03:38:43.368Z,71.00
2018-12-27T03:41:11.929Z,69.90
2018-12-27T03:43:40.509Z,70.00
2018-12-27T03:46:09.371Z,69.90
2018-12-27T03:48:37.936Z,69.30
2018-12-27T03:51:06.501Z,68.80
2018-12-27T03:53:35.105Z,69.50
2018-12-27T03:56:03.690Z,67.90
2018-12-27T03:58:32.313Z,66.90
2018-12-27T04:01:00.873Z,66.90
2018-12-27T04:03:29.505Z,66.50
2018-12-27T04:05:58.083Z,66.90
2018-12-27T04:08:26.642Z,67.00
2018-12-27T04:10:55.226Z,66.20
2018-12-27T04:13:23.832Z,66.60
2018-12-27T04:15:52.357Z,67.00
2018-12-27T04:18:20.750Z,67.60
2018-12-27T04:20:49.189Z,68.20
2018-12-27T04:23:18.061Z,68.40
2018-12-27T04:25:46.606Z,68.70
2018-12-27T04:28:15.049Z,68.90
2018-12-27T04:30:43.800Z,69.10
2018-12-27T04:33:14.525Z,68.30
2018-12-27T04:35:43.698Z,68.20
2018-12-27T04:38:12.077Z,67.80
2018-12-27T04:40:40.770Z,68.20
2018-12-27T04:43:09.161Z,68.80
2018-12-27T04:45:37.573Z,69.00
2018-12-27T04:48:06.033Z,70.50
2018-12-27T04:50:34.482Z,71.80
2018-12-27T04:53:02.869Z,71.80
2018-12-27T04:55:31.294Z,71.20
2018-12-27T04:57:59.697Z,69.90
2018-12-27T05:00:28.109Z,69.40
2018-12-27T05:02:56.558Z,69.30
2018-12-27T05:05:25.007Z,69.10
2018-12-27T05:07:53.437Z,68.60
2018-12-27T05:10:21.869Z,67.60
2018-12-27T05:12:50.386Z,68.20
2018-12-27T05:15:18.826Z,69.40
2018-12-27T05:17:47.358Z,69.00
2018-12-27T05:20:15.791Z,71.00
2018-12-27T05:22:44.225Z,71.60
2018-12-27T05:25:12.625Z,73.00
2018-12-27T05:27:41.349Z,74.40
2018-12-27T05:30:09.757Z,74.60
2018-12-27T05:32:38.170Z,74.80
2018-12-27T05:35:06.581Z,75.00
2018-12-27T05:37:35.005Z,74.20
2018-12-27T05:40:05.540Z,72.70
2018-12-27T05:42:33.999Z,71.10
2018-12-27T05:45:02.681Z,71.70
2018-12-27T05:47:31.148Z,71.30
2018-12-27T05:49:59.957Z,71.20
2018-12-27T05:52:28.361Z,72.00
2018-12-27T05:54:56.854Z,72.40
2018-12-27T05:57:25.278Z,72.30
2018-12-27T05:59:53.699Z,72.30
2018-12-27T06:02:22.142Z,71.60
2018-12-27T06:04:50.834Z,71.50
2018-12-27T06:07:19.248Z,71.50
2018-12-27T06:09:47.730Z,70.70
2018-12-27T06:12:16.149Z,69.20
2018-12-27T06:14:44.591Z,68.60
2018-12-27T06:17:12.995Z,69.30
2018-12-27T06:19:41.409Z,69.30
2018-12-27T06:22:09.823Z,69.50
2018-12-27T06:24:38.586Z,69.50
2018-12-27T06:27:07.032Z,69.10
2018-12-27T06:29:35.487Z,68.50
2018-12-27T06:32:04.020Z,68.80
2018-12-27T06:34:32.428Z,67.80
2018-12-27T06:37:00.836Z,66.90
2018-12-27T06:39:29.332Z,67.30
2018-12-27T06:41:59.406Z,68.70
2018-12-27T06:44:27.879Z,69.40
2018-12-27T06:46:56.290Z,69.50
2018-12-27T06:49:24.699Z,70.30
2018-12-27T06:51:53.134Z,69.90
2018-12-27T06:54:21.820Z,68.10
2018-12-27T06:56:50.241Z,67.40
2018-12-27T06:59:18.668Z,67.60
2018-12-27T07:01:47.086Z,67.70
2018-12-27T07:04:15.534Z,68.70
2018-12-27T07:06:43.932Z,69.20
2018-12-27T07:09:12.705Z,69.70
2018-12-27T07:11:41.134Z,69.40
2018-12-27T07:14:09.570Z,68.80
2018-12-27T07:16:37.980Z,68.80
2018-12-27T07:19:06.469Z,69.00
2018-12-27T07:21:34.971Z,69.20
2018-12-27T07:24:03.419Z,69.00
2018-12-27T07:26:31.823Z,68.70
2018-12-27T07:29:00.251Z,68.30
2018-12-27T07:31:28.665Z,68.20
2018-12-27T07:33:57.153Z,66.90
2018-12-27T07:36:25.560Z,67.30
2018-12-27T07:38:54.033Z,66.10
2018-12-27T07:41:22.433Z,66.40
2018-12-27T07:43:50.918Z,67.30
2018-12-27T07:46:19.333Z,67.30
2018-12-27T07:48:47.753Z,68.00
2018-12-27T07:51:16.600Z,68.50
2018-12-27T07:53:45.043Z,67.90
2018-12-27T07:56:32.804Z,67.80
2018-12-27T07:59:01.206Z,67.30
2018-12-27T08:01:29.653Z,67.70
2018-12-27T08:03:58.076Z,67.40
2018-12-27T08:06:26.487Z,67.30
2018-12-27T08:08:54.916Z,66.80
2018-12-27T08:11:23.346Z,67.00
2018-12-27T08:13:51.738Z,69.50
2018-12-27T08:16:20.152Z,69.40
2018-12-27T08:18:48.565Z,68.90
2018-12-27T08:21:17.008Z,65.90
2018-12-27T08:23:45.506Z,64.80
2018-12-27T08:26:13.916Z,64.20
2018-12-27T08:28:42.395Z,64.80
2018-12-27T08:31:10.808Z,63.70
2018-12-27T08:33:39.219Z,63.90
2018-12-27T08:36:07.675Z,64.50
2018-12-27T08:38:36.089Z,64.80
2018-12-27T08:41:04.501Z,63.40
2018-12-27T08:43:32.903Z,62.80
2018-12-27T08:46:01.342Z,63.10
2018-12-27T08:48:29.773Z,62.90
2018-12-27T08:50:58.188Z,62.80
2018-12-27T08:53:26.605Z,63.10
2018-12-27T08:55:55.089Z,62.90
2018-12-27T08:58:23.492Z,62.80
2018-12-27T09:00:51.928Z,62.40
2018-12-27T09:03:20.330Z,61.90
2018-12-27T09:05:48.747Z,61.70
2018-12-27T09:08:17.162Z,62.30
2018-12-27T09:10:45.573Z,63.10
2018-12-27T09:13:14.015Z,63.80
2018-12-27T09:15:42.424Z,63.60
2018-12-27T09:18:11.093Z,63.40
2018-12-27T09:20:39.527Z,63.80
2018-12-27T09:23:07.948Z,64.30
2018-12-27T09:25:36.351Z,63.40
2018-12-27T09:28:04.809Z,63.30
2018-12-27T09:30:33.209Z,62.60
2018-12-27T09:33:01.642Z,62.30
2018-12-27T09:35:30.081Z,60.90
2018-12-27T09:37:58.503Z,61.90
2018-12-27T09:40:27.247Z,60.70
2018-12-27T09:42:55.693Z,60.30
2018-12-27T09:45:24.132Z,60.30
2018-12-27T09:47:52.622Z,59.30
2018-12-27T09:50:21.362Z,57.50
2018-12-27T09:52:49.780Z,55.70
2018-12-27T09:55:18.188Z,54.80
2018-12-27T09:57:46.610Z,53.70
2018-12-27T10:00:15.288Z,53.30
2018-12-27T10:02:43.980Z,53.50
2018-12-27T10:05:12.389Z,53.90
2018-12-27T10:07:40.831Z,54.10
2018-12-27T10:10:09.224Z,54.40
2018-12-27T10:12:37.687Z,54.70
2018-12-27T10:15:08.290Z,54.70
2018-12-27T10:17:36.701Z,54.60
2018-12-27T10:20:06.446Z,53.90
2018-12-27T10:22:35.523Z,53.70
2018-12-27T10:25:05.492Z,53.50
2018-12-27T10:27:33.904Z,53.00
2018-12-27T10:30:02.734Z,53.20
2018-12-27T10:32:31.141Z,53.20
2018-12-27T10:34:59.556Z,53.90
2018-12-27T10:37:27.973Z,54.20
2018-12-27T10:39:56.367Z,53.80
2018-12-27T10:42:24.801Z,53.40
2018-12-27T10:44:53.229Z,53.20
2018-12-27T10:47:21.641Z,53.90
2018-12-27T10:49:50.053Z,55.00
2018-12-27T10:52:18.458Z,55.20
2018-12-27T10:54:46.865Z,55.20
2018-12-27T10:57:15.325Z,55.10
2018-12-27T10:59:43.733Z,55.10
2018-12-27T11:02:12.139Z,55.70
2018-12-27T11:04:40.554Z,55.30
2018-12-27T11:07:08.965Z,55.00
2018-12-27T11:09:37.391Z,55.10
2018-12-27T11:12:05.810Z,55.20
2018-12-27T11:14:34.223Z,55.30
2018-12-27T11:17:02.680Z,55.70
2018-12-27T11:19:31.115Z,55.40
2018-12-27T11:21:59.546Z,55.10
2018-12-27T11:24:27.964Z,56.20
2018-12-27T11:26:56.392Z,56.00
2018-12-27T11:29:25.157Z,56.40
2018-12-27T11:31:53.681Z,56.20
2018-12-27T11:34:22.135Z,55.80
2018-12-27T11:36:50.822Z,56.40
2018-12-27T11:39:19.261Z,56.50
2018-12-27T11:41:47.657Z,56.40
2018-12-27T11:44:16.071Z,56.20
2018-12-27T11:46:44.608Z,56.30
2018-12-27T11:49:13.040Z,56.30
2018-12-27T11:51:41.835Z,56.60
2018-12-27T11:54:10.240Z,56.10
2018-12-27T11:56:38.681Z,55.40
2018-12-27T11:59:07.153Z,55.10
2018-12-27T12:01:35.594Z,55.00
2018-12-27T12:04:04.016Z,55.10
2018-12-27T12:06:32.446Z,54.70
2018-12-27T12:09:00.856Z,54.80
2018-12-27T12:11:29.264Z,54.50
2018-12-27T12:13:57.673Z,53.30
2018-12-27T12:16:26.079Z,53.90
2018-12-27T12:18:54.498Z,53.80
2018-12-27T12:21:22.934Z,53.20
2018-12-27T12:23:51.326Z,53.30
2018-12-27T12:26:19.757Z,53.20
2018-12-27T12:28:48.174Z,53.20
2018-12-27T12:31:16.618Z,53.40
2018-12-27T12:33:45.113Z,54.10
2018-12-27T12:36:13.595Z,54.30
2018-12-27T12:38:42.197Z,55.10
2018-12-27T12:41:10.631Z,54.80
2018-12-27T12:43:39.022Z,55.30
2018-12-27T12:46:07.449Z,55.70
2018-12-27T12:48:35.864Z,55.70
2018-12-27T12:51:04.266Z,56.00
2018-12-27T12:53:32.684Z,56.10
2018-12-27T12:56:01.461Z,56.30
2018-12-27T12:58:29.908Z,56.40
2018-12-27T13:00:58.420Z,56.40
2018-12-27T13:03:26.857Z,56.10
2018-12-27T13:05:55.286Z,56.30
2018-12-27T13:08:23.670Z,56.90
2018-12-27T13:10:52.129Z,56.80
2018-12-27T13:13:39.905Z,56.50
2018-12-27T13:16:08.309Z,56.70
2018-12-27T13:18:36.742Z,57.70
2018-12-27T13:21:05.203Z,57.50
2018-12-27T13:23:33.623Z,58.00
2018-12-27T13:26:02.063Z,58.70
2018-12-27T13:28:30.459Z,58.70
2018-12-27T13:30:58.881Z,58.90
2018-12-27T13:33:27.382Z,58.70
2018-12-27T13:35:55.786Z,58.70
2018-12-27T13:38:24.189Z,59.40
2018-12-27T13:40:52.606Z,59.80
2018-12-27T13:43:21.057Z,60.00
2018-12-27T13:45:49.616Z,61.00
2018-12-27T13:48:18.029Z,61.60
2018-12-27T13:50:46.472Z,62.10
2018-12-27T13:53:15.011Z,62.20
2018-12-27T13:55:44.289Z,62.50
2018-12-27T13:58:12.768Z,62.90
2018-12-27T14:00:41.165Z,63.50
2018-12-27T14:03:10.013Z,63.60
2018-12-27T14:05:38.453Z,63.90
2018-12-27T14:08:06.871Z,65.40
2018-12-27T14:10:35.273Z,66.40
2018-12-27T14:13:03.696Z,66.10
2018-12-27T14:15:32.111Z,65.70
2018-12-27T14:18:00.535Z,65.10
2018-12-27T14:20:29.187Z,65.10
2018-12-27T14:22:57.600Z,64.90
2018-12-27T14:25:26.059Z,64.60
2018-12-27T14:27:54.522Z,64.50
2018-12-27T14:30:22.989Z,64.90
2018-12-27T14:32:51.441Z,64.60
2018-12-27T14:35:19.843Z,64.50
2018-12-27T14:37:48.277Z,64.80
2018-12-27T14:40:16.730Z,64.60
2018-12-27T14:42:45.146Z,65.20
2018-12-27T14:45:13.629Z,65.80
2018-12-27T14:47:43.214Z,66.40
2018-12-27T14:50:11.818Z,67.20
2018-12-27T14:52:40.270Z,67.40
2018-12-27T14:55:08.657Z,67.70
2018-12-27T14:57:37.068Z,68.20
2018-12-27T15:00:08.814Z,67.80
2018-12-27T15:02:37.224Z,68.20
2018-12-27T15:05:05.869Z,68.10
2018-12-27T15:07:34.264Z,68.10
2018-12-27T15:10:02.717Z,67.90
2018-12-27T15:12:31.149Z,67.30
2018-12-27T15:14:59.672Z,68.20
2018-12-27T15:17:28.068Z,68.70
2018-12-27T15:19:56.485Z,68.50
2018-12-27T15:22:24.885Z,68.40
2018-12-27T15:24:54.141Z,68.90
2018-12-27T15:27:22.693Z,69.10
2018-12-27T15:29:51.149Z,69.20
2018-12-27T15:32:19.538Z,69.50
2018-12-27T15:34:47.985Z,69.50
2018-12-27T15:37:16.384Z,69.80
2018-12-27T15:39:44.797Z,69.70
2018-12-27T15:42:13.207Z,70.00
2018-12-27T15:44:41.638Z,70.30
2018-12-27T15:47:10.048Z,70.40
2018-12-27T15:49:38.472Z,70.50
2018-12-27T15:52:07.231Z,71.50
2018-12-27T15:54:35.644Z,71.30
2018-12-27T15:57:04.082Z,71.20
2018-12-27T15:59:32.553Z,71.10
2018-12-27T16:02:01.024Z,70.90
2018-12-27T16:04:29.466Z,70.40
2018-12-27T16:07:01.766Z,70.30
2018-12-27T16:09:28.070Z,70.20
2018-12-27T16:11:56.502Z,69.30
2018-12-27T16:14:24.980Z,68.90
2018-12-27T16:16:53.441Z,69.60
2018-12-27T16:19:21.899Z,69.80
2018-12-27T16:21:50.304Z,69.90
2018-12-27T16:24:18.726Z,69.80
2018-12-27T16:26:47.141Z,69.80
2018-12-27T16:29:15.657Z,69.80
2018-12-27T16:31:44.066Z,69.20
2018-12-27T16:34:12.479Z,68.50
2018-12-27T16:36:40.955Z,68.40
2018-12-27T16:39:09.421Z,69.10
2018-12-27T16:41:37.857Z,69.20
2018-12-27T16:44:06.277Z,69.20
2018-12-27T16:46:34.965Z,69.00
2018-12-27T16:49:03.417Z,69.60
2018-12-27T16:51:31.877Z,70.10
2018-12-27T16:54:00.329Z,70.50
2018-12-27T16:56:28.756Z,70.50
2018-12-27T16:58:57.161Z,70.50
2018-12-27T17:01:25.569Z,70.80
2018-12-27T17:03:54.031Z,71.00
2018-12-27T17:06:22.424Z,70.60
2018-12-27T17:08:50.874Z,70.50
2018-12-27T17:11:19.591Z,70.90
2018-12-27T17:13:48.069Z,71.50
2018-12-27T17:16:16.509Z,72.30
2018-12-27T17:18:45.235Z,71.50
2018-12-27T17:21:13.649Z,71.30
2018-12-27T17:23:42.413Z,71.60
2018-12-27T17:26:11.089Z,71.50
2018-12-27T17:28:39.531Z,71.50
2018-12-27T17:31:07.936Z,71.70
2018-12-27T17:33:36.362Z,71.60
2018-12-27T17:36:04.785Z,71.30
2018-12-27T17:38:33.188Z,70.90
2018-12-27T17:41:01.630Z,70.40
2018-12-27T17:43:30.025Z,70.50
2018-12-27T17:45:58.432Z,70.30
2018-12-27T17:48:26.864Z,71.00
2018-12-27T17:50:55.312Z,71.40
2018-12-27T17:53:23.709Z,71.40
2018-12-27T17:55:52.198Z,72.00
2018-12-27T17:58:20.618Z,72.10
2018-12-27T18:00:49.034Z,71.90
2018-12-27T18:03:20.527Z,71.40
2018-12-27T18:05:48.941Z,71.40
2018-12-27T18:08:17.357Z,71.40
2018-12-27T18:10:45.769Z,71.20
2018-12-27T18:13:14.166Z,71.40
2018-12-27T18:15:43.030Z,71.30
2018-12-27T18:18:11.425Z,70.90
2018-12-27T18:20:39.853Z,71.10
2018-12-27T18:23:08.314Z,71.10
2018-12-27T18:25:36.735Z,71.10
2018-12-27T18:28:05.138Z,70.50
2018-12-27T18:30:33.571Z,69.80
2018-12-27T18:33:01.977Z,70.20
2018-12-27T18:35:30.445Z,70.70
2018-12-27T18:37:58.904Z,70.70
2018-12-27T18:40:27.309Z,71.00
2018-12-27T18:42:55.724Z,70.90
2018-12-27T18:45:24.121Z,71.00
2018-12-27T18:47:52.573Z,71.00
2018-12-27T18:50:20.979Z,71.00
2018-12-27T18:52:49.389Z,70.60
2018-12-27T18:55:20.198Z,70.90
2018-12-27T18:57:47.951Z,70.90
2018-12-27T19:00:16.377Z,70.70
2018-12-27T19:02:44.795Z,70.80
2018-12-27T19:05:13.201Z,71.20
2018-12-27T19:07:44.918Z,71.30
2018-12-27T19:10:11.766Z,71.80
2018-12-27T19:13:03.058Z,72.00
2018-12-27T19:15:33.434Z,72.20
2018-12-27T19:18:02.324Z,72.30
2018-12-27T19:20:30.735Z,72.70
2018-12-27T19:23:02.233Z,72.80
2018-12-27T19:25:30.632Z,73.60
2018-12-27T19:27:59.046Z,75.00
2018-12-27T19:30:27.525Z,76.10
2018-12-27T19:32:55.953Z,76.50
2018-12-27T19:35:24.401Z,77.10
2018-12-27T19:37:52.898Z,78.50
2018-12-27T19:40:21.302Z,78.00
2018-12-27T19:42:49.981Z,76.70
2018-12-27T19:45:18.665Z,77.40
2018-12-27T19:47:47.093Z,77.50
2018-12-27T19:50:15.842Z,76.90
2018-12-27T19:52:44.274Z,76.30
2018-12-27T19:55:12.708Z,76.10
2018-12-27T19:57:41.128Z,76.10
2018-12-27T20:00:09.604Z,75.60
2018-12-27T20:02:38.021Z,75.50
2018-12-27T20:05:06.433Z,75.20
2018-12-27T20:07:34.845Z,74.70
2018-12-27T20:10:03.947Z,74.30
2018-12-27T20:12:32.457Z,74.10
2018-12-27T20:15:00.941Z,74.30
2018-12-27T20:17:29.381Z,74.50
2018-12-27T20:19:57.884Z,74.50
2018-12-27T20:22:26.721Z,74.30
2018-12-27T20:24:55.149Z,73.80
2018-12-27T20:27:23.590Z,72.90
2018-12-27T20:29:52.019Z,72.60
2018-12-27T20:32:20.416Z,72.40
2018-12-27T20:34:48.830Z,72.30
2018-12-27T20:37:17.233Z,71.70
2018-12-27T20:39:45.664Z,71.60
2018-12-27T20:42:14.057Z,70.60
2018-12-27T20:44:42.503Z,70.50
2018-12-27T20:47:10.901Z,70.40
2018-12-27T20:49:39.593Z,69.80
2018-12-27T20:52:08.059Z,69.60
2018-12-27T20:54:36.649Z,69.40
2018-12-27T20:57:05.074Z,69.70
2018-12-27T20:59:33.474Z,69.90
2018-12-27T21:02:01.892Z,69.90
2018-12-27T21:04:30.296Z,69.80
2018-12-27T21:06:59.685Z,70.10
2018-12-27T21:09:28.219Z,69.90
2018-12-27T21:11:56.661Z,70.10
2018-12-27T21:14:25.062Z,70.20
2018-12-27T21:16:53.499Z,70.60
2018-12-27T21:19:21.928Z,70.50
2018-12-27T21:21:50.709Z,70.50
2018-12-27T21:24:19.111Z,70.50
2018-12-27T21:26:47.530Z,70.80
2018-12-27T21:29:15.932Z,70.90
2018-12-27T21:31:44.670Z,70.80
2018-12-27T21:34:13.140Z,70.60
2018-12-27T21:36:41.586Z,70.60
2018-12-27T21:39:10.037Z,70.10
2018-12-27T21:41:38.436Z,70.10
2018-12-27T21:44:06.881Z,69.80
2018-12-27T21:46:35.269Z,70.20
2018-12-27T21:49:03.695Z,69.90
2018-12-27T21:51:32.133Z,69.80
2018-12-27T21:54:00.557Z,70.80
2018-12-27T21:56:29.272Z,71.20
2018-12-27T21:58:57.689Z,71.10
2018-12-27T22:01:26.173Z,71.30
2018-12-27T22:03:54.602Z,71.50
2018-12-27T22:06:23.037Z,71.30
2018-12-27T22:08:51.437Z,71.10
2018-12-27T22:11:19.849Z,71.10
2018-12-27T22:13:48.261Z,70.30
2018-12-27T22:16:16.657Z,70.70
2018-12-27T22:18:45.070Z,70.30
2018-12-27T22:21:13.778Z,70.20
2018-12-27T22:23:42.233Z,70.30
2018-12-27T22:26:10.662Z,70.30
2018-12-27T22:28:39.091Z,69.40
2018-12-27T22:31:07.495Z,69.30
2018-12-27T22:33:35.901Z,69.30
2018-12-27T22:36:04.343Z,69.20
2018-12-27T22:38:35.739Z,69.30
2018-12-27T22:41:02.954Z,69.60
2018-12-27T22:43:31.409Z,69.40
2018-12-27T22:46:00.230Z,69.40
2018-12-27T22:48:28.653Z,69.20
2018-12-27T22:50:57.089Z,69.70
2018-12-27T22:53:25.500Z,69.80
2018-12-27T22:55:56.949Z,69.50
2018-12-27T22:58:25.411Z,69.20
2018-12-27T23:00:54.490Z,69.60
2018-12-27T23:03:22.953Z,69.70
2018-12-27T23:05:51.366Z,70.10
2018-12-27T23:08:20.059Z,71.20
2018-12-27T23:10:48.480Z,71.90
2018-12-27T23:13:16.922Z,72.00
2018-12-27T23:15:45.351Z,72.30
2018-12-27T23:18:13.756Z,72.00
2018-12-27T23:20:42.237Z,71.70
2018-12-27T23:23:10.638Z,71.80
2018-12-27T23:25:39.072Z,71.70
2018-12-27T23:28:07.472Z,70.90
2018-12-27T23:30:36.192Z,71.00
2018-12-27T23:33:04.605Z,71.10
2018-12-27T23:35:33.034Z,70.90
2018-12-27T23:38:01.429Z,70.80
2018-12-27T23:40:29.846Z,70.80
2018-12-27T23:42:58.259Z,71.10
2018-12-27T23:45:26.697Z,71.00
2018-12-27T23:47:55.195Z,70.80
2018-12-27T23:50:24.969Z,70.40
2018-12-27T23:52:53.373Z,70.70
2018-12-27T23:55:21.793Z,70.90
2018-12-27T23:57:50.193Z,70.90
